AGROMETEOROLOŠKI PORTAL

vinorodna pokrajina

Temelj dobrega kmetovanja

Pregled podatkov za lokacijo Šentjakob, meteorološka postaja 513648

Pregled senzorjev na lokaciji

ID Ime Zadnja
vrednost
Datum in čas
meritve
(lokalni čas)
Tip
senzorja
6114 Omočenost lista (20 cm) (U) 0 U 4.2.2023 22:00 A730WET
6117 Omočenost lista (1,5 m) (U) 0 U 4.2.2023 22:00 A730WET
6118 Padavine (mm) 0 mm 4.2.2023 22:00 Generic 0.2 mm
6113 Relativna zračna vlaga (20 cm) (%RH) 70 %RH 4.2.2023 22:00 50YA
6116 Relativna zračna vlaga (2 m) (%RH) 55 %RH 4.2.2023 22:00 50YA
6112 Temperatura (20 cm) (°C) -0,1 °C 4.2.2023 22:00 50YA
6115 Temperatura (2 m) (°C) 2 °C 4.2.2023 22:00 50YA

Pregled podatkov zadnjih 24 ur

Zap.
št.
Datum in čas
(lokalni čas)
Šentjakob
Omočenost
lista
(20
cm)
Omočenost
lista
(1,5
m)
Padavine Relativna
zračna
vlaga
(20
cm)
Relativna
zračna
vlaga
(2
m)
Temperatura
(20
cm)
Temperatura
(2
m)
1 4.2.2023 22:00 0 0 0 55 69,7 -0,1 2
2 4.2.2023 21:30 0 0 0 51 62,9 1,1 2,9
3 4.2.2023 21:00 0 0 0 50,5 59,9 1,7 3,2
4 4.2.2023 20:30 0 0 0 53,6 63,6 1,1 2,9
5 4.2.2023 20:00 0 0 0 53,1 62,4 1,7 3,2
6 4.2.2023 19:30 0 0 0 48,8 55,4 3,2 4,2
7 4.2.2023 19:00 0 0 0 46,8 51,2 3,9 4,7
8 4.2.2023 18:30 0 0 0 46 50,5 4,3 5,1
9 4.2.2023 18:00 0 0 0 45,5 51,3 4,5 5,4
10 4.2.2023 17:30 0 0 0 42,2 45,5 5,7 6,2
11 4.2.2023 17:00 0 0 0 41,1 44,5 6,6 7,1
12 4.2.2023 16:30 0 0 0 39,9 43 7,2 7,7
13 4.2.2023 16:00 0 0 0 40,1 42,8 7,7 8
14 4.2.2023 15:30 0 0 0 38,4 41,4 8,7 8,8
15 4.2.2023 15:00 0 0 0 34,5 38,3 10 10,1
16 4.2.2023 14:30 0 0 0 33,5 37,3 10,8 10,7
17 4.2.2023 14:00 0 0 0 32,6 36,2 11,3 11,2
18 4.2.2023 13:30 0 0 0 31,4 34,8 10,7 10,9
19 4.2.2023 13:00 0 0 0 32,2 35,9 10,7 10,8
20 4.2.2023 12:30 0 0 0 31,9 35,8 11,2 11,3
21 4.2.2023 12:00 0 0 0 30,6 34,8 10,9 11,2
22 4.2.2023 11:30 0 0 0 27,9 31,5 11 11,3
23 4.2.2023 11:00 0 0 0 26,7 30,4 11,1 11,4
24 4.2.2023 10:30 0 0 0 26,1 29,5 10,8 11,2
25 4.2.2023 10:00 0 0 0 31,4 34,9 10,3 10,8
26 4.2.2023 09:30 0 0 0 34,9 38 10 10,6
27 4.2.2023 09:00 0 0 0 35,4 39,2 9,7 10,6
28 4.2.2023 08:30 0 0 0 38 42,9 9,1 10,4
29 4.2.2023 08:00 0 0 0 42 50,1 7,6 9,6
30 4.2.2023 07:30 1 0 0 41,5 49,1 7,9 9,8
31 4.2.2023 07:00 10 0 0 46,2 54,3 7,3 9,3
32 4.2.2023 06:30 10 3 0 50,9 61,1 6,1 8,6
33 4.2.2023 06:00 0 4 0 79,2 87,9 0,9 3,3
34 4.2.2023 05:30 0 0 0 90,2 93,5 0,6 2,2
35 4.2.2023 05:00 0 0 0 100 98,3 -1,6 -0,6
36 4.2.2023 04:30 0 0 0 100 98,1 -2,6 -1,9
37 4.2.2023 04:00 0 0 0 99,9 97,9 -2,8 -2,2
38 4.2.2023 03:30 0 0 0 99,9 97,9 -2,7 -1,8
39 4.2.2023 03:00 0 0 0 99,9 97,8 -2,5 -1,6
40 4.2.2023 02:30 0 0 0 99,9 97,7 -2,3 -1,4
41 4.2.2023 02:00 0 0 0 99,4 97,4 -2,2 -1,4
42 4.2.2023 01:30 0 0 0 99 97,4 -1,9 -0,9
43 4.2.2023 01:00 0 0 0 98,4 97,2 -1,8 -0,6
44 4.2.2023 00:30 0 0 0 97,2 96,7 -1,6 -0,2
45 4.2.2023 00:00 0 0 0 94,6 95,4 -1,1 0,5
46 3.2.2023 23:30 0 0 0 91 92,4 0,1 1,9
47 3.2.2023 23:00 0 0 0 86,8 90,3 1,7 3,5
48 3.2.2023 22:30 0 0 0 82,8 87,4 2,8 4,5